createdAt,value
2024-01-15T00:04:41.560Z,76.72
2024-01-15T00:09:44.674Z,76.67
2024-01-15T00:14:47.519Z,76.80
2024-01-15T00:19:50.374Z,76.65
2024-01-15T00:24:53.134Z,76.53
2024-01-15T00:29:56.081Z,76.80
2024-01-15T00:34:58.841Z,76.87
2024-01-15T00:40:02.129Z,76.93
2024-01-15T00:45:06.655Z,76.70
2024-01-15T00:50:10.492Z,76.74
2024-01-15T00:55:13.208Z,76.78
2024-01-15T01:00:16.421Z,76.70
2024-01-15T01:05:19.391Z,76.97
2024-01-15T01:10:22.457Z,77.26
2024-01-15T01:15:25.990Z,77.18
2024-01-15T01:20:28.802Z,77.38
2024-01-15T01:25:31.885Z,77.45
2024-01-15T01:30:34.745Z,77.46
2024-01-15T01:35:37.745Z,77.71
2024-01-15T01:40:40.739Z,77.85
2024-01-15T01:45:44.085Z,78.03
2024-01-15T01:50:47.336Z,77.96
2024-01-15T01:55:52.019Z,77.93
2024-01-15T02:00:55.185Z,77.86
2024-01-15T02:05:58.478Z,77.79
2024-01-15T02:11:03.384Z,77.82
2024-01-15T02:16:06.354Z,78.04
2024-01-15T02:21:10.926Z,78.07
2024-01-15T02:26:14.837Z,78.12
2024-01-15T02:31:18.466Z,78.34
2024-01-15T02:36:21.392Z,78.23
2024-01-15T02:41:24.288Z,78.18
2024-01-15T02:46:26.997Z,78.12
2024-01-15T02:51:30.208Z,78.15
2024-01-15T02:56:33.067Z,78.08
2024-01-15T03:01:35.897Z,77.88
2024-01-15T03:06:39.133Z,77.54
2024-01-15T03:11:42.198Z,77.61
2024-01-15T03:16:44.908Z,77.61
2024-01-15T03:21:47.838Z,77.29
2024-01-15T03:26:50.628Z,77.29
2024-01-15T03:31:54.299Z,77.24
2024-01-15T03:36:57.058Z,77.16
2024-01-15T03:41:59.862Z,77.21
2024-01-15T03:47:02.732Z,77.42
2024-01-15T03:52:06.265Z,77.79
2024-01-15T03:57:09.133Z,78.08
2024-01-15T04:02:12.027Z,78.37
2024-01-15T04:07:14.751Z,78.04
2024-01-15T04:12:17.696Z,78.09
2024-01-15T04:17:22.795Z,78.08
2024-01-15T04:22:26.829Z,77.96
2024-01-15T04:27:29.694Z,77.80
2024-01-15T04:32:32.642Z,77.46
2024-01-15T04:37:35.565Z,76.91
2024-01-15T04:42:38.668Z,77.03
2024-01-15T04:47:41.561Z,77.16
2024-01-15T04:52:44.773Z,77.40
2024-01-15T04:57:47.762Z,77.63
2024-01-15T05:02:52.480Z,77.90
2024-01-15T05:07:55.465Z,78.10
2024-01-15T05:12:58.228Z,78.22
2024-01-15T05:18:01.153Z,78.33
2024-01-15T05:23:04.490Z,78.24
2024-01-15T05:28:07.446Z,78.35
2024-01-15T05:33:10.230Z,78.45
2024-01-15T05:38:13.803Z,78.40
2024-01-15T05:43:16.532Z,78.69
2024-01-15T05:48:19.965Z,78.63
2024-01-15T05:53:22.846Z,78.76
2024-01-15T05:58:25.596Z,78.98
2024-01-15T06:03:28.771Z,79.27
2024-01-15T06:08:31.673Z,79.42
2024-01-15T06:13:34.654Z,79.66
2024-01-15T06:18:37.593Z,79.65
2024-01-15T06:23:41.572Z,79.59
2024-01-15T06:28:44.480Z,79.59
2024-01-15T06:33:49.674Z,79.55
2024-01-15T06:38:52.752Z,79.47
2024-01-15T06:43:56.892Z,79.35
2024-01-15T06:48:59.668Z,79.33
2024-01-15T06:54:03.148Z,78.83
2024-01-15T06:59:06.047Z,78.77
2024-01-15T07:04:09.453Z,78.63
2024-01-15T07:09:12.404Z,77.92
2024-01-15T07:14:15.617Z,77.22
2024-01-15T07:19:18.467Z,77.44
2024-01-15T07:24:21.432Z,76.57
2024-01-15T07:29:24.445Z,76.95
2024-01-15T07:34:27.503Z,76.46
2024-01-15T07:39:31.775Z,75.61
2024-01-15T07:44:35.043Z,75.58
2024-01-15T07:49:38.061Z,75.72
2024-01-15T07:54:41.077Z,75.18
2024-01-15T07:59:43.889Z,75.27
2024-01-15T08:04:47.191Z,74.81
2024-01-15T08:09:50.235Z,74.17
2024-01-15T08:14:53.042Z,74.04
2024-01-15T08:19:56.151Z,73.91
2024-01-15T08:24:59.222Z,74.12
2024-01-15T08:30:01.990Z,74.19
2024-01-15T08:35:05.423Z,75.58
2024-01-15T08:40:35.449Z,75.32
2024-01-15T08:45:38.574Z,74.80
2024-01-15T08:51:07.419Z,74.99
2024-01-15T08:56:10.176Z,74.80
2024-01-15T09:01:13.294Z,73.73
2024-01-15T09:06:16.289Z,74.05
2024-01-15T09:11:19.098Z,74.38
2024-01-15T09:16:21.795Z,74.42
2024-01-15T09:21:25.802Z,73.88
2024-01-15T09:26:28.731Z,74.14
2024-01-15T09:31:32.627Z,73.59
2024-01-15T09:36:42.522Z,74.56
2024-01-15T09:41:45.499Z,74.00
2024-01-15T09:46:51.459Z,73.35
2024-01-15T09:52:06.133Z,73.27
2024-01-15T09:57:14.567Z,72.01
2024-01-15T10:02:19.566Z,73.42
2024-01-15T10:07:24.535Z,71.24
2024-01-15T10:12:28.479Z,71.14
2024-01-15T10:17:32.545Z,71.85
2024-01-15T10:22:38.856Z,71.39
2024-01-15T10:27:43.046Z,71.15
2024-01-15T10:33:00.848Z,71.06
2024-01-15T10:38:04.206Z,69.78
2024-01-15T10:43:06.986Z,70.67
2024-01-15T10:48:09.965Z,69.97
2024-01-15T10:53:15.901Z,69.12
2024-01-15T10:58:19.778Z,69.40
2024-01-15T11:03:23.405Z,70.37
2024-01-15T11:08:26.855Z,71.22
2024-01-15T11:13:32.388Z,71.36
2024-01-15T11:18:45.263Z,70.94
2024-01-15T11:24:00.867Z,71.92
2024-01-15T11:29:30.980Z,72.68
2024-01-15T11:35:00.056Z,73.10
2024-01-15T11:40:12.353Z,73.38
2024-01-15T11:45:20.588Z,73.37
2024-01-15T11:50:23.721Z,73.15
2024-01-15T11:55:35.494Z,72.95
2024-01-15T12:00:50.006Z,71.60
2024-01-15T12:05:56.055Z,70.57
2024-01-15T12:10:59.117Z,69.52
2024-01-15T12:16:05.236Z,67.93
2024-01-15T12:21:09.142Z,68.16
2024-01-15T12:26:12.134Z,66.22
2024-01-15T12:31:14.964Z,66.42
2024-01-15T12:36:22.348Z,69.10
2024-01-15T12:41:25.230Z,70.40
2024-01-15T12:46:28.618Z,70.39
2024-01-15T12:51:31.558Z,69.77
2024-01-15T12:56:34.264Z,69.81
2024-01-15T13:01:37.611Z,70.26
2024-01-15T13:06:41.835Z,69.99
2024-01-15T13:11:46.660Z,69.94
2024-01-15T13:16:49.584Z,70.49
2024-01-15T13:21:52.786Z,71.74
2024-01-15T13:26:58.590Z,73.10
2024-01-15T13:37:27.451Z,74.48
2024-01-15T13:42:48.942Z,73.52
2024-01-15T13:48:54.710Z,73.86
2024-01-15T13:54:02.256Z,73.34
2024-01-15T13:59:06.552Z,72.75
2024-01-15T14:04:09.287Z,72.38
2024-01-15T14:09:12.150Z,72.70
2024-01-15T14:14:15.636Z,72.58
2024-01-15T14:19:20.090Z,72.46
2024-01-15T14:24:23.213Z,70.74
2024-01-15T14:34:55.169Z,69.39
2024-01-15T14:39:58.198Z,69.69
2024-01-15T14:45:03.472Z,68.83
2024-01-15T14:50:11.380Z,69.65
2024-01-15T14:55:14.504Z,68.56
2024-01-15T15:00:18.286Z,68.74
2024-01-15T15:05:21.351Z,68.37
2024-01-15T15:10:24.170Z,68.12
2024-01-15T15:15:27.065Z,68.15
2024-01-15T15:20:30.353Z,68.82
2024-01-15T15:25:33.321Z,67.96
2024-01-15T15:30:36.303Z,67.71
2024-01-15T15:35:40.514Z,67.89
2024-01-15T15:40:43.343Z,68.00
2024-01-15T15:45:46.138Z,66.76
2024-01-15T15:50:49.009Z,67.25
2024-01-15T15:55:51.833Z,68.23
2024-01-15T16:00:55.095Z,66.60
2024-01-15T16:05:58.738Z,66.80
2024-01-15T16:11:01.729Z,68.08
2024-01-15T16:23:09.546Z,67.52
2024-01-15T16:23:36.632Z,66.51
2024-01-15T16:26:50.797Z,66.47
2024-01-15T16:31:53.856Z,67.66
2024-01-15T16:36:56.680Z,66.49
2024-01-15T16:41:59.870Z,66.90
2024-01-15T16:47:07.330Z,66.40
2024-01-15T16:52:13.539Z,66.87
2024-01-15T16:57:16.375Z,67.77
2024-01-15T17:02:19.380Z,67.20
2024-01-15T17:07:22.220Z,67.81
2024-01-15T17:12:25.020Z,67.76
2024-01-15T17:17:27.799Z,68.30
2024-01-15T17:22:32.253Z,67.88
2024-01-15T17:27:35.122Z,67.54
2024-01-15T17:32:38.190Z,67.72
2024-01-15T17:37:41.031Z,68.19
2024-01-15T17:42:43.843Z,68.28
2024-01-15T17:47:46.812Z,68.21
2024-01-15T17:52:49.739Z,68.44
2024-01-15T17:57:53.781Z,68.84
2024-01-15T18:02:56.957Z,68.26
2024-01-15T18:08:00.172Z,68.60
2024-01-15T18:13:02.879Z,68.73
2024-01-15T18:18:06.392Z,68.76
2024-01-15T18:23:09.460Z,68.31
2024-01-15T18:28:15.663Z,69.03
2024-01-15T18:33:23.261Z,69.74
2024-01-15T18:38:26.088Z,70.46
2024-01-15T18:43:35.281Z,70.14
2024-01-15T18:48:38.151Z,71.17
2024-01-15T18:53:41.200Z,71.43
2024-01-15T18:58:44.889Z,71.48
2024-01-15T19:03:47.653Z,71.51
2024-01-15T19:08:51.770Z,72.00
2024-01-15T19:13:54.518Z,72.12
2024-01-15T19:18:57.537Z,72.00
2024-01-15T19:24:00.380Z,72.26
2024-01-15T19:29:04.415Z,71.72
2024-01-15T19:34:07.225Z,71.73
2024-01-15T19:39:10.698Z,71.76
2024-01-15T19:44:13.593Z,71.98
2024-01-15T19:49:21.724Z,72.78
2024-01-15T19:54:24.425Z,72.95
2024-01-15T19:59:27.226Z,72.86
2024-01-15T20:04:30.067Z,72.91
2024-01-15T20:09:33.105Z,73.02
2024-01-15T20:14:36.628Z,73.26
2024-01-15T20:19:40.714Z,73.25
2024-01-15T20:24:43.692Z,72.68
2024-01-15T20:29:46.709Z,72.50
2024-01-15T20:34:49.686Z,72.25
2024-01-15T20:39:52.702Z,72.13
2024-01-15T20:44:55.506Z,72.97
2024-01-15T20:49:58.473Z,73.79
2024-01-15T20:55:01.244Z,73.28
2024-01-15T21:00:05.656Z,72.54
2024-01-15T21:05:09.058Z,71.48
2024-01-15T21:10:11.967Z,70.45
2024-01-15T21:15:15.581Z,70.13
2024-01-15T21:20:18.454Z,69.04
2024-01-15T21:25:22.911Z,69.47
2024-01-15T21:30:26.314Z,69.36
2024-01-15T21:35:29.448Z,69.63
2024-01-15T21:40:33.365Z,69.00
2024-01-15T21:45:36.112Z,67.63
2024-01-15T21:50:38.773Z,67.89
2024-01-15T21:55:41.506Z,67.43
2024-01-15T22:00:44.393Z,68.04
2024-01-15T22:05:47.832Z,68.50
2024-01-15T22:10:50.678Z,68.38
2024-01-15T22:15:53.417Z,68.41
2024-01-15T22:20:57.985Z,68.35
2024-01-15T22:26:02.314Z,68.27
2024-01-15T22:31:05.097Z,67.86
2024-01-15T22:36:08.203Z,67.72
2024-01-15T22:41:11.051Z,68.32
2024-01-15T22:46:14.115Z,68.83
2024-01-15T22:51:16.860Z,69.65
2024-01-15T22:56:20.766Z,69.70
2024-01-15T23:01:24.251Z,69.56
2024-01-15T23:06:27.260Z,69.47
2024-01-15T23:11:30.012Z,68.41
2024-01-15T23:16:32.817Z,68.40
2024-01-15T23:21:35.581Z,68.13
2024-01-15T23:26:38.357Z,68.27
2024-01-15T23:31:41.785Z,68.19
2024-01-15T23:36:44.610Z,67.78
2024-01-15T23:41:47.439Z,67.83
2024-01-15T23:46:50.363Z,67.29
2024-01-15T23:51:53.795Z,67.04
2024-01-15T23:56:56.578Z,66.91
